sensor_id;sensor_type;location;lat;lon;timestamp;pressure;altitude;pressure_sealevel;temperature;humidity
20043;BME280;10182;52.896;6.496;2024-03-02T05:45:53;99960.91;;;6.84;100.00
20043;BME280;10182;52.896;6.496;2024-03-02T05:50:54;99955.44;;;6.89;100.00
20043;BME280;10182;52.896;6.496;2024-03-02T05:55:56;99969.47;;;6.89;100.00
20043;BME280;10182;52.896;6.496;2024-03-02T06:01:00;99979.56;;;6.80;100.00
20043;BME280;10182;52.896;6.496;2024-03-02T06:06:02;99979.81;;;6.73;100.00
20043;BME280;10182;52.896;6.496;2024-03-02T06:11:03;99985.34;;;6.67;100.00
20043;BME280;10182;52.896;6.496;2024-03-02T06:16:07;99989.59;;;6.49;100.00
20043;BME280;10182;52.896;6.496;2024-03-02T06:21:09;99998.25;;;6.31;100.00
20043;BME280;10182;52.896;6.496;2024-03-02T06:26:11;99998.63;;;6.21;100.00
20043;BME280;10182;52.896;6.496;2024-03-02T06:31:14;99995.81;;;6.04;100.00
20043;BME280;10182;52.896;6.496;2024-03-02T06:36:15;100000.66;;;5.91;100.00
20043;BME280;10182;52.896;6.496;2024-03-02T06:41:17;99999.13;;;5.85;100.00
20043;BME280;10182;52.896;6.496;2024-03-02T06:46:20;100004.06;;;5.93;100.00
20043;BME280;10182;52.896;6.496;2024-03-02T06:51:22;100021.75;;;5.89;100.00
20043;BME280;10182;52.896;6.496;2024-03-02T06:56:23;100027.75;;;5.93;100.00
20043;BME280;10182;52.896;6.496;2024-03-02T07:01:26;100030.97;;;6.01;100.00
20043;BME280;10182;52.896;6.496;2024-03-02T07:06:29;100034.34;;;6.05;100.00
20043;BME280;10182;52.896;6.496;2024-03-02T07:11:31;100041.38;;;6.26;100.00
20043;BME280;10182;52.896;6.496;2024-03-02T07:16:37;100041.94;;;6.35;100.00
20043;BME280;10182;52.896;6.496;2024-03-02T07:21:40;100048.03;;;6.35;100.00
20043;BME280;10182;52.896;6.496;2024-03-02T07:26:42;100057.09;;;6.50;100.00
20043;BME280;10182;52.896;6.496;2024-03-02T07:31:45;100068.41;;;6.52;100.00
20043;BME280;10182;52.896;6.496;2024-03-02T07:36:47;100065.53;;;6.58;100.00
20043;BME280;10182;52.896;6.496;2024-03-02T07:41:49;100068.09;;;6.60;100.00
20043;BME280;10182;52.896;6.496;2024-03-02T07:46:52;100070.41;;;6.68;100.00
20043;BME280;10182;52.896;6.496;2024-03-02T07:51:53;100071.41;;;6.65;100.00
20043;BME280;10182;52.896;6.496;2024-03-02T07:56:55;100081.63;;;6.73;100.00
20043;BME280;10182;52.896;6.496;2024-03-02T08:01:59;100093.00;;;6.73;100.00
20043;BME280;10182;52.896;6.496;2024-03-02T08:07:01;100097.50;;;6.92;100.00
20043;BME280;10182;52.896;6.496;2024-03-02T08:12:03;100103.78;;;7.10;100.00
20043;BME280;10182;52.896;6.496;2024-03-02T08:17:06;100112.13;;;7.20;100.00
20043;BME280;10182;52.896;6.496;2024-03-02T08:22:10;100116.78;;;7.54;100.00
20043;BME280;10182;52.896;6.496;2024-03-02T08:27:12;100114.22;;;7.92;100.00
20043;BME280;10182;52.896;6.496;2024-03-02T08:32:15;100108.97;;;8.11;100.00
20043;BME280;10182;52.896;6.496;2024-03-02T08:37:18;100109.19;;;8.07;100.00
20043;BME280;10182;52.896;6.496;2024-03-02T08:42:19;100119.88;;;8.04;100.00
20043;BME280;10182;52.896;6.496;2024-03-02T08:47:22;100113.72;;;8.03;100.00
20043;BME280;10182;52.896;6.496;2024-03-02T08:52:24;100112.31;;;8.15;100.00
20043;BME280;10182;52.896;6.496;2024-03-02T08:57:26;100118.50;;;8.33;100.00
20043;BME280;10182;52.896;6.496;2024-03-02T09:02:29;100121.78;;;8.38;100.00
20043;BME280;10182;52.896;6.496;2024-03-02T09:07:31;100119.00;;;8.60;100.00
20043;BME280;10182;52.896;6.496;2024-03-02T09:12:32;100117.75;;;9.04;100.00
20043;BME280;10182;52.896;6.496;2024-03-02T09:17:36;100120.59;;;8.82;100.00
20043;BME280;10182;52.896;6.496;2024-03-02T09:22:37;100127.59;;;8.83;100.00
20043;BME280;10182;52.896;6.496;2024-03-02T09:27:39;100132.72;;;8.86;100.00
20043;BME280;10182;52.896;6.496;2024-03-02T09:32:42;100124.72;;;8.88;100.00
20043;BME280;10182;52.896;6.496;2024-03-02T09:37:44;100131.47;;;8.76;100.00
20043;BME280;10182;52.896;6.496;2024-03-02T09:42:46;100136.50;;;8.63;100.00
20043;BME280;10182;52.896;6.496;2024-03-02T09:47:54;100138.78;;;8.71;100.00
20043;BME280;10182;52.896;6.496;2024-03-02T09:52:56;100128.22;;;8.71;100.00
20043;BME280;10182;52.896;6.496;2024-03-02T09:57:58;100129.28;;;8.84;100.00
20043;BME280;10182;52.896;6.496;2024-03-02T10:03:01;100139.34;;;9.12;100.00
20043;BME280;10182;52.896;6.496;2024-03-02T10:08:03;100130.09;;;9.21;100.00
20043;BME280;10182;52.896;6.496;2024-03-02T10:13:06;100129.97;;;9.24;100.00
20043;BME280;10182;52.896;6.496;2024-03-02T10:18:11;100133.63;;;9.22;100.00
20043;BME280;10182;52.896;6.496;2024-03-02T10:23:14;100135.47;;;9.37;100.00
20043;BME280;10182;52.896;6.496;2024-03-02T10:28:16;100124.72;;;9.58;100.00
20043;BME280;10182;52.896;6.496;2024-03-02T10:33:19;100119.28;;;9.61;100.00
20043;BME280;10182;52.896;6.496;2024-03-02T10:38:21;100123.69;;;9.60;100.00
20043;BME280;10182;52.896;6.496;2024-03-02T10:43:23;100121.88;;;9.78;100.00
20043;BME280;10182;52.896;6.496;2024-03-02T10:48:27;100118.56;;;9.75;100.00
20043;BME280;10182;52.896;6.496;2024-03-02T10:53:29;100116.78;;;9.91;100.00
20043;BME280;10182;52.896;6.496;2024-03-02T10:58:33;100125.16;;;9.99;100.00
20043;BME280;10182;52.896;6.496;2024-03-02T11:03:36;100125.16;;;9.99;100.00
20043;BME280;10182;52.896;6.496;2024-03-02T11:08:40;100118.41;;;9.94;100.00
20043;BME280;10182;52.896;6.496;2024-03-02T11:13:49;100112.59;;;10.03;100.00
20043;BME280;10182;52.896;6.496;2024-03-02T11:18:52;100117.09;;;10.19;100.00
20043;BME280;10182;52.896;6.496;2024-03-02T11:23:54;100112.72;;;10.18;100.00
20043;BME280;10182;52.896;6.496;2024-03-02T11:28:56;100110.31;;;10.29;100.00
20043;BME280;10182;52.896;6.496;2024-03-02T11:34:17;100108.56;;;10.29;100.00
20043;BME280;10182;52.896;6.496;2024-03-02T11:39:19;100116.41;;;10.47;100.00
20043;BME280;10182;52.896;6.496;2024-03-02T11:44:21;100116.41;;;10.63;100.00
20043;BME280;10182;52.896;6.496;2024-03-02T11:49:37;100105.69;;;10.50;100.00
20043;BME280;10182;52.896;6.496;2024-03-02T11:54:42;100108.97;;;10.70;100.00
20043;BME280;10182;52.896;6.496;2024-03-02T11:59:48;100100.81;;;10.89;100.00
20043;BME280;10182;52.896;6.496;2024-03-02T12:04:52;100106.66;;;11.10;100.00
20043;BME280;10182;52.896;6.496;2024-03-02T12:09:59;100102.63;;;11.18;100.00
20043;BME280;10182;52.896;6.496;2024-03-02T12:15:02;100102.88;;;11.14;100.00
20043;BME280;10182;52.896;6.496;2024-03-02T12:20:06;100103.06;;;11.11;100.00
20043;BME280;10182;52.896;6.496;2024-03-02T12:25:08;100096.13;;;10.94;100.00
20043;BME280;10182;52.896;6.496;2024-03-02T12:30:11;100100.88;;;11.03;100.00
20043;BME280;10182;52.896;6.496;2024-03-02T12:35:15;100098.63;;;11.11;100.00
20043;BME280;10182;52.896;6.496;2024-03-02T12:40:18;100100.06;;;11.17;100.00
20043;BME280;10182;52.896;6.496;2024-03-02T12:45:20;100090.50;;;11.29;100.00
20043;BME280;10182;52.896;6.496;2024-03-02T12:50:25;100087.69;;;11.32;100.00
20043;BME280;10182;52.896;6.496;2024-03-02T12:55:27;100086.06;;;11.44;100.00
20043;BME280;10182;52.896;6.496;2024-03-02T13:00:29;100083.31;;;11.31;100.00
20043;BME280;10182;52.896;6.496;2024-03-02T13:05:36;100083.03;;;11.35;100.00
20043;BME280;10182;52.896;6.496;2024-03-02T13:10:38;100064.84;;;11.44;100.00
20043;BME280;10182;52.896;6.496;2024-03-02T13:15:41;100081.16;;;11.38;100.00
20043;BME280;10182;52.896;6.496;2024-03-02T13:20:44;100082.47;;;11.45;100.00
20043;BME280;10182;52.896;6.496;2024-03-02T13:25:46;100074.81;;;11.55;100.00
20043;BME280;10182;52.896;6.496;2024-03-02T13:30:48;100079.94;;;11.58;100.00
20043;BME280;10182;52.896;6.496;2024-03-02T13:35:51;100066.38;;;11.48;100.00
20043;BME280;10182;52.896;6.496;2024-03-02T13:40:53;100065.44;;;11.49;100.00
20043;BME280;10182;52.896;6.496;2024-03-02T13:45:55;100073.69;;;11.44;100.00
20043;BME280;10182;52.896;6.496;2024-03-02T13:50:58;100071.13;;;11.43;100.00
20043;BME280;10182;52.896;6.496;2024-03-02T13:56:00;100055.88;;;11.46;100.00
20043;BME280;10182;52.896;6.496;2024-03-02T14:01:02;100057.41;;;11.65;100.00
20043;BME280;10182;52.896;6.496;2024-03-02T14:06:06;100058.81;;;11.71;100.00
20043;BME280;10182;52.896;6.496;2024-03-02T14:11:08;100039.66;;;11.65;100.00
20043;BME280;10182;52.896;6.496;2024-03-02T14:16:11;100043.09;;;11.67;100.00
20043;BME280;10182;52.896;6.496;2024-03-02T14:21:15;100043.38;;;11.77;100.00
20043;BME280;10182;52.896;6.496;2024-03-02T14:26:16;100029.06;;;11.80;100.00
20043;BME280;10182;52.896;6.496;2024-03-02T14:31:19;100036.91;;;11.81;100.00
20043;BME280;10182;52.896;6.496;2024-03-02T14:36:23;100021.09;;;11.94;100.00
20043;BME280;10182;52.896;6.496;2024-03-02T14:41:24;100022.88;;;11.94;100.00
20043;BME280;10182;52.896;6.496;2024-03-02T14:46:26;100020.69;;;11.86;100.00
20043;BME280;10182;52.896;6.496;2024-03-02T14:51:29;100020.91;;;11.83;100.00
20043;BME280;10182;52.896;6.496;2024-03-02T14:56:31;100016.25;;;11.87;100.00
20043;BME280;10182;52.896;6.496;2024-03-02T15:01:33;100015.69;;;11.81;100.00
20043;BME280;10182;52.896;6.496;2024-03-02T15:06:36;100016.47;;;11.69;100.00
20043;BME280;10182;52.896;6.496;2024-03-02T15:11:38;100003.19;;;11.69;100.00
20043;BME280;10182;52.896;6.496;2024-03-02T15:16:40;100006.22;;;11.77;100.00
20043;BME280;10182;52.896;6.496;2024-03-02T15:21:43;100005.34;;;11.77;100.00
20043;BME280;10182;52.896;6.496;2024-03-02T15:26:45;99997.31;;;11.78;100.00
20043;BME280;10182;52.896;6.496;2024-03-02T15:31:47;100003.78;;;11.60;100.00
20043;BME280;10182;52.896;6.496;2024-03-02T15:36:50;99999.72;;;11.54;100.00
20043;BME280;10182;52.896;6.496;2024-03-02T15:41:52;99992.22;;;11.46;100.00
20043;BME280;10182;52.896;6.496;2024-03-02T15:46:53;99994.22;;;11.28;100.00
20043;BME280;10182;52.896;6.496;2024-03-02T15:51:57;99981.63;;;11.32;100.00
20043;BME280;10182;52.896;6.496;2024-03-02T15:57:00;99988.06;;;11.28;100.00
20043;BME280;10182;52.896;6.496;2024-03-02T16:02:02;99986.81;;;11.19;100.00
20043;BME280;10182;52.896;6.496;2024-03-02T16:07:06;99976.50;;;11.14;100.00
20043;BME280;10182;52.896;6.496;2024-03-02T16:12:08;99971.56;;;11.08;100.00
20043;BME280;10182;52.896;6.496;2024-03-02T16:17:09;99975.75;;;10.98;100.00
20043;BME280;10182;52.896;6.496;2024-03-02T16:22:12;99969.97;;;10.91;100.00
20043;BME280;10182;52.896;6.496;2024-03-02T16:27:14;99965.25;;;11.11;100.00
20043;BME280;10182;52.896;6.496;2024-03-02T16:32:18;99969.31;;;11.16;100.00
20043;BME280;10182;52.896;6.496;2024-03-02T16:37:21;99962.41;;;11.14;100.00
20043;BME280;10182;52.896;6.496;2024-03-02T16:42:25;99962.69;;;11.09;100.00
20043;BME280;10182;52.896;6.496;2024-03-02T16:47:27;99973.75;;;11.01;100.00
20043;BME280;10182;52.896;6.496;2024-03-02T16:52:30;99968.06;;;10.79;100.00
20043;BME280;10182;52.896;6.496;2024-03-02T16:57:31;99965.00;;;10.71;100.00
20043;BME280;10182;52.896;6.496;2024-03-02T17:02:33;99974.19;;;10.65;100.00
20043;BME280;10182;52.896;6.496;2024-03-02T17:07:36;99966.75;;;10.56;100.00
20043;BME280;10182;52.896;6.496;2024-03-02T17:12:38;99972.09;;;10.40;100.00
20043;BME280;10182;52.896;6.496;2024-03-02T17:17:39;99975.03;;;10.35;100.00
20043;BME280;10182;52.896;6.496;2024-03-02T17:22:42;99982.03;;;10.20;100.00
20043;BME280;10182;52.896;6.496;2024-03-02T17:27:44;99979.00;;;10.26;100.00
20043;BME280;10182;52.896;6.496;2024-03-02T17:32:46;99991.56;;;10.23;100.00
20043;BME280;10182;52.896;6.496;2024-03-02T17:37:49;100000.03;;;10.13;100.00
20043;BME280;10182;52.896;6.496;2024-03-02T17:42:51;100009.94;;;10.10;100.00
20043;BME280;10182;52.896;6.496;2024-03-02T17:47:53;100009.28;;;10.06;100.00
20043;BME280;10182;52.896;6.496;2024-03-02T17:52:56;100010.91;;;10.09;100.00
20043;BME280;10182;52.896;6.496;2024-03-02T17:57:58;100015.81;;;10.15;100.00
20043;BME280;10182;52.896;6.496;2024-03-02T18:02:59;100016.25;;;10.07;100.00
20043;BME280;10182;52.896;6.496;2024-03-02T18:08:03;100013.34;;;10.12;100.00
20043;BME280;10182;52.896;6.496;2024-03-02T18:13:05;100018.19;;;10.20;100.00
20043;BME280;10182;52.896;6.496;2024-03-02T18:18:07;100020.50;;;10.26;100.00
20043;BME280;10182;52.896;6.496;2024-03-02T18:23:10;100012.75;;;10.23;100.00
20043;BME280;10182;52.896;6.496;2024-03-02T18:28:13;100019.50;;;10.28;100.00
20043;BME280;10182;52.896;6.496;2024-03-02T18:33:15;100020.28;;;10.14;100.00
20043;BME280;10182;52.896;6.496;2024-03-02T18:38:18;100022.91;;;10.14;100.00
20043;BME280;10182;52.896;6.496;2024-03-02T18:43:19;100022.13;;;10.12;100.00
20043;BME280;10182;52.896;6.496;2024-03-02T18:48:21;100024.88;;;10.11;100.00
20043;BME280;10182;52.896;6.496;2024-03-02T18:53:24;100029.03;;;9.99;100.00
20043;BME280;10182;52.896;6.496;2024-03-02T18:58:26;100027.00;;;9.88;100.00
20043;BME280;10182;52.896;6.496;2024-03-02T19:03:27;100025.63;;;9.81;100.00
20043;BME280;10182;52.896;6.496;2024-03-02T19:08:31;100024.53;;;9.69;100.00
20043;BME280;10182;52.896;6.496;2024-03-02T19:13:33;100034.00;;;9.73;100.00
20043;BME280;10182;52.896;6.496;2024-03-02T19:18:34;100021.72;;;9.72;100.00
20043;BME280;10182;52.896;6.496;2024-03-02T19:23:37;100022.72;;;9.70;100.00
20043;BME280;10182;52.896;6.496;2024-03-02T19:28:39;100024.00;;;9.62;100.00
20043;BME280;10182;52.896;6.496;2024-03-02T19:33:41;100025.34;;;9.54;100.00
20043;BME280;10182;52.896;6.496;2024-03-02T19:38:44;100024.66;;;9.50;100.00
20043;BME280;10182;52.896;6.496;2024-03-02T19:43:46;100026.34;;;9.51;100.00
20043;BME280;10182;52.896;6.496;2024-03-02T19:48:47;100024.13;;;9.43;100.00
20043;BME280;10182;52.896;6.496;2024-03-02T19:53:53;100023.44;;;9.40;100.00
20043;BME280;10182;52.896;6.496;2024-03-02T19:58:57;100023.25;;;9.43;100.00
20043;BME280;10182;52.896;6.496;2024-03-02T20:04:02;100023.53;;;9.38;100.00
20043;BME280;10182;52.896;6.496;2024-03-02T20:09:05;100017.84;;;9.46;100.00
20043;BME280;10182;52.896;6.496;2024-03-02T20:14:08;100008.72;;;9.52;100.00
20043;BME280;10182;52.896;6.496;2024-03-02T20:19:10;100005.22;;;9.67;100.00
20043;BME280;10182;52.896;6.496;2024-03-02T20:24:13;100008.56;;;9.87;100.00
20043;BME280;10182;52.896;6.496;2024-03-02T20:29:15;100008.16;;;9.94;100.00
20043;BME280;10182;52.896;6.496;2024-03-02T20:34:17;100003.69;;;10.11;100.00
20043;BME280;10182;52.896;6.496;2024-03-02T20:39:20;100002.31;;;10.20;100.00
20043;BME280;10182;52.896;6.496;2024-03-02T20:44:21;99999.75;;;10.18;100.00
20043;BME280;10182;52.896;6.496;2024-03-02T20:49:26;99989.69;;;10.25;100.00
20043;BME280;10182;52.896;6.496;2024-03-02T20:54:31;99997.28;;;10.31;100.00
20043;BME280;10182;52.896;6.496;2024-03-02T20:59:33;99980.81;;;10.26;100.00
20043;BME280;10182;52.896;6.496;2024-03-02T21:04:35;99986.50;;;10.34;100.00
20043;BME280;10182;52.896;6.496;2024-03-02T21:09:38;99974.66;;;10.25;100.00
20043;BME280;10182;52.896;6.496;2024-03-02T21:14:40;99985.06;;;10.28;100.00
20043;BME280;10182;52.896;6.496;2024-03-02T21:19:41;99977.94;;;10.14;100.00
20043;BME280;10182;52.896;6.496;2024-03-02T21:24:44;99989.88;;;10.06;100.00
20043;BME280;10182;52.896;6.496;2024-03-02T21:29:46;99991.06;;;10.00;100.00
20043;BME280;10182;52.896;6.496;2024-03-02T21:34:48;99982.38;;;9.98;100.00
20043;BME280;10182;52.896;6.496;2024-03-02T21:39:51;99977.84;;;9.84;100.00
20043;BME280;10182;52.896;6.496;2024-03-02T21:44:53;99984.59;;;9.90;100.00
20043;BME280;10182;52.896;6.496;2024-03-02T21:49:55;99981.88;;;9.75;100.00
20043;BME280;10182;52.896;6.496;2024-03-02T21:54:59;99977.88;;;9.68;100.00
20043;BME280;10182;52.896;6.496;2024-03-02T22:00:01;99980.69;;;9.65;100.00
20043;BME280;10182;52.896;6.496;2024-03-02T22:05:03;99975.09;;;9.54;100.00
20043;BME280;10182;52.896;6.496;2024-03-02T22:10:10;99977.56;;;9.41;100.00
20043;BME280;10182;52.896;6.496;2024-03-02T22:15:16;99973.38;;;9.37;100.00
20043;BME280;10182;52.896;6.496;2024-03-02T22:20:18;99979.16;;;9.27;100.00
20043;BME280;10182;52.896;6.496;2024-03-02T22:25:21;99983.16;;;9.19;100.00
20043;BME280;10182;52.896;6.496;2024-03-02T22:30:23;99985.41;;;9.09;100.00
20043;BME280;10182;52.896;6.496;2024-03-02T22:35:26;99980.63;;;9.00;100.00
20043;BME280;10182;52.896;6.496;2024-03-02T22:40:29;99986.75;;;9.00;100.00
20043;BME280;10182;52.896;6.496;2024-03-02T22:45:33;99980.63;;;9.00;100.00
20043;BME280;10182;52.896;6.496;2024-03-02T22:50:35;99992.97;;;8.99;100.00
20043;BME280;10182;52.896;6.496;2024-03-02T22:55:39;99988.47;;;9.01;100.00
20043;BME280;10182;52.896;6.496;2024-03-02T23:00:40;99998.63;;;9.09;100.00
20043;BME280;10182;52.896;6.496;2024-03-02T23:05:48;100002.22;;;9.08;100.00
20043;BME280;10182;52.896;6.496;2024-03-02T23:10:51;100012.47;;;8.96;100.00
20043;BME280;10182;52.896;6.496;2024-03-02T23:15:53;100010.06;;;8.92;100.00
20043;BME280;10182;52.896;6.496;2024-03-02T23:20:55;100008.28;;;8.92;100.00
20043;BME280;10182;52.896;6.496;2024-03-02T23:25:58;100012.53;;;8.77;100.00
20043;BME280;10182;52.896;6.496;2024-03-02T23:30:59;100007.97;;;8.81;100.00
20043;BME280;10182;52.896;6.496;2024-03-02T23:36:01;100005.59;;;8.76;100.00
20043;BME280;10182;52.896;6.496;2024-03-02T23:41:04;100007.75;;;8.68;100.00
20043;BME280;10182;52.896;6.496;2024-03-02T23:46:10;100015.34;;;8.74;100.00
20043;BME280;10182;52.896;6.496;2024-03-02T23:51:12;100009.06;;;8.77;100.00
20043;BME280;10182;52.896;6.496;2024-03-02T23:56:15;100008.81;;;8.81;100.00
